Murrayville, Georgia
Current Conditions -  °F | °C
As of 12:06 PM on Saturday 20 Dec 2014 (Local Time) from KGVL Reporting Station
Haze Haze  
Wind Chill: 41°   Ceiling: 1000
Heat Index: 45°   Visibility: 6mi
Dew Point: 42°   Wind: 7mph
Humidity: 90%   Direction: 60°ENE
Pressure: 30.21"   Gusts: NA
Location:  34.42°N, 83.91°W
Report Text: KGVL 201706Z AUTO 06006KT 6SM BR OVC010 07/06 A3021 RMK AO2 CIG 008V013 T00720056
Loading
Personal Weather Stations






























Interactive Weather Map New forecast layout! Learn more

10-Day Weather Forecast

Advertisements
Track Severe Weather on mobile